WIF4K ENVA-ENBN
Flight info
| Callsign | WIF4K |
|---|---|
| Flight time | 0h 19m |
| Altitude | 16000 |
| Route | NIGEX DCT BNN |
| Aircraft | DH8B/M-SDFGR/S |
Departure
| Time | 2026-05-04 16:07 |
|---|---|
| Airport | Trondheim Airport, Værnes (ENVA) |
Arrival
| Time | 2026-05-04 16:26 |
|---|---|
| Airport | Brønnøysund Airport, Brønnøy (ENBN) |
| Time | Latitude | Longitude | Altitude | Speed | Heading |
|---|---|---|---|---|---|
| 2026-05-04 16:00 | 63.45454 | 10.91269 | 41 ft | 0 kts | 90° |
| 2026-05-04 16:05 | 63.45454 | 10.91258 | 41 ft | 0 kts | 90° |
| 2026-05-04 16:05 | 63.45448 | 10.91228 | 39 ft | 5 kts | 285° |
| 2026-05-04 16:06 | 63.45483 | 10.91146 | 40 ft | 11 kts | 356° |
| 2026-05-04 16:06 | 63.45692 | 10.91520 | 32 ft | 17 kts | 359° |
| 2026-05-04 16:07 | 63.45761 | 10.91495 | 33 ft | 2 kts | 275° |
| 2026-05-04 16:07 | 63.45754 | 10.88051 | 811 ft | 130 kts | 271° |
| 2026-05-04 16:08 | 63.45769 | 10.85956 | 1598 ft | 140 kts | 271° |
| 2026-05-04 16:08 | 63.47362 | 10.80648 | 3894 ft | 173 kts | 342° |
| 2026-05-04 16:09 | 63.49883 | 10.82044 | 5428 ft | 191 kts | 3° |
| 2026-05-04 16:09 | 63.52511 | 10.83278 | 6973 ft | 196 kts | 8° |
| 2026-05-04 16:10 | 63.59766 | 10.87660 | 10918 ft | 217 kts | 9° |
| 2026-05-04 16:11 | 63.80093 | 11.00012 | 15711 ft | 299 kts | 10° |
| 2026-05-04 16:11 | 63.87420 | 11.04521 | 15647 ft | 249 kts | 10° |
| 2026-05-04 16:12 | 64.09583 | 11.18289 | 15655 ft | 278 kts | 11° |
| 2026-05-04 16:12 | 64.29382 | 11.30815 | 15656 ft | 275 kts | 11° |
| 2026-05-04 16:13 | 64.33090 | 11.33160 | 15659 ft | 275 kts | 11° |
| 2026-05-04 16:13 | 64.36762 | 11.35491 | 15666 ft | 276 kts | 11° |
| 2026-05-04 16:14 | 64.40457 | 11.37873 | 15669 ft | 275 kts | 10° |
| 2026-05-04 16:14 | 64.44135 | 11.40232 | 15673 ft | 275 kts | 11° |
| 2026-05-04 16:15 | 64.49667 | 11.43792 | 15671 ft | 275 kts | 11° |
| 2026-05-04 16:16 | 64.53365 | 11.46174 | 15678 ft | 275 kts | 12° |
| 2026-05-04 16:16 | 64.58835 | 11.49724 | 15666 ft | 272 kts | 11° |
| 2026-05-04 16:17 | 64.62481 | 11.52105 | 15660 ft | 271 kts | 12° |
| 2026-05-04 16:18 | 64.71893 | 11.58259 | 15633 ft | 270 kts | 11° |
| 2026-05-04 16:18 | 64.79145 | 11.63029 | 15621 ft | 269 kts | 12° |
| 2026-05-04 16:19 | 64.94064 | 11.72939 | 14460 ft | 264 kts | 13° |
| 2026-05-04 16:20 | 64.99296 | 11.76435 | 12881 ft | 256 kts | 13° |
| 2026-05-04 16:20 | 65.02676 | 11.78706 | 11783 ft | 250 kts | 13° |
| 2026-05-04 16:21 | 65.19846 | 11.90344 | 6096 ft | 222 kts | 14° |
| 2026-05-04 16:22 | 65.26625 | 11.94952 | 3575 ft | 208 kts | 14° |
| 2026-05-04 16:22 | 65.32411 | 11.98921 | 2034 ft | 168 kts | 14° |
| 2026-05-04 16:23 | 65.35200 | 12.03115 | 1124 ft | 159 kts | 28° |
| 2026-05-04 16:24 | 65.40749 | 12.12372 | 1347 ft | 148 kts | 29° |
| 2026-05-04 16:25 | 65.42439 | 12.15114 | 1062 ft | 134 kts | 30° |
| 2026-05-04 16:26 | 65.45360 | 12.20297 | 46 ft | 114 kts | 38° |
| 2026-05-04 16:26 | 65.46014 | 12.21327 | 27 ft | 11 kts | 229° |
| 2026-05-04 16:27 | 65.45990 | 12.21078 | 24 ft | 0 kts | 307° |